Time;durP1;ratioP1;P1;durP2;ratioP2;P2;SDS_P1;SDS_P2;PMS_P1;PMS_P2;Temp;Humidity;BMP_temperature;BMP_pressure;BME280_temperature;BME280_humidity;BME280_pressure;Samples;Min_cycle;Max_cycle;Signal;HPM_P1;HPM_P2
2023/04/02 00:00:31;;;;;;;16.73;8.40;;;;;;;-143.48;96.89;118439.88;5018489;28;19909;-78
2023/04/02 00:03:02;;;;;;;15.32;8.70;;;;;;;-143.48;97.09;118439.88;5035870;28;20026;-77
2023/04/02 00:05:49;;;;;;;14.15;8.70;;;;;;;-143.48;97.17;118439.88;5035977;28;20079;-77
2023/04/02 00:08:37;;;;;;;17.25;8.60;;;;;;;-143.48;95.98;118439.88;5035988;28;20097;-78
2023/04/02 00:11:04;;;;;;;19.10;8.65;;;;;;;-143.48;96.48;118439.88;5035648;28;20052;-78
2023/04/02 00:13:35;;;;;;;13.75;8.15;;;;;;;-143.48;95.72;118439.88;5035560;28;20380;-77
2023/04/02 00:16:03;;;;;;;18.08;8.88;;;;;;;-143.48;95.97;118439.88;5035632;28;20527;-77
2023/04/02 00:18:29;;;;;;;20.38;8.65;;;;;;;-143.48;95.88;118439.88;5017523;28;20384;-77
2023/04/02 00:21:04;;;;;;;17.15;9.70;;;;;;;-143.48;96.76;118439.88;5017584;28;20025;-78
2023/04/02 00:23:30;;;;;;;16.63;8.45;;;;;;;-143.48;95.77;118439.88;5017716;28;20362;-77
2023/04/02 00:25:55;;;;;;;16.05;8.85;;;;;;;-143.48;95.70;118439.88;5017693;28;20045;-77
2023/04/02 00:28:23;;;;;;;17.88;8.77;;;;;;;-143.48;95.58;118439.88;5035286;28;20022;-77
2023/04/02 00:30:51;;;;;;;16.00;8.35;;;;;;;-143.48;95.04;118439.88;5035138;28;20029;-78
2023/04/02 00:33:20;;;;;;;15.65;8.63;;;;;;;-143.48;95.59;118439.88;5017441;28;20025;-77
2023/04/02 00:35:47;;;;;;;19.95;8.65;;;;;;;-143.48;95.43;118439.88;5035037;28;20037;-78
2023/04/02 00:38:23;;;;;;;14.85;8.38;;;;;;;-143.48;95.26;118439.88;5017207;28;20084;-77
2023/04/02 00:40:51;;;;;;;17.45;9.07;;;;;;;-143.48;95.67;118439.88;5034880;28;20056;-76
2023/04/02 00:43:17;;;;;;;16.58;9.02;;;;;;;-143.48;95.48;118439.88;5016900;28;20075;-77
2023/04/02 00:45:49;;;;;;;16.60;8.50;;;;;;;-143.48;95.00;118439.88;5034802;28;20025;-78
2023/04/02 00:48:40;;;;;;;18.53;8.90;;;;;;;-143.48;95.93;118439.88;5034873;28;20021;-78
2023/04/02 00:51:27;;;;;;;14.98;8.52;;;;;;;-143.48;94.56;118439.88;5035311;28;20025;-77
2023/04/02 00:53:55;;;;;;;14.40;8.30;;;;;;;-143.48;95.47;118439.88;5034792;28;20358;-77
2023/04/02 00:56:33;;;;;;;15.23;8.23;;;;;;;-143.48;95.51;118439.88;5017105;28;20028;-78
2023/04/02 00:58:59;;;;;;;13.38;7.57;;;;;;;-143.48;94.58;118439.88;5016798;28;20545;-78
2023/04/02 01:01:33;;;;;;;14.23;7.85;;;;;;;-143.48;95.29;118439.88;5017017;28;20341;-77
2023/04/02 01:04:00;;;;;;;13.43;8.05;;;;;;;-143.48;94.79;118439.88;5034773;28;20112;-77
2023/04/02 01:06:33;;;;;;;12.85;7.63;;;;;;;-143.48;94.43;118439.88;5016881;28;20029;-78
2023/04/02 01:09:17;;;;;;;13.55;7.43;;;;;;;-143.48;94.23;118439.88;5016861;28;20383;-77
2023/04/02 01:12:10;;;;;;;13.63;7.88;;;;;;;-143.48;94.28;118439.88;5016772;28;20033;-78
2023/04/02 01:15:06;;;;;;;13.68;7.57;;;;;;;-143.48;94.40;118439.88;5034550;28;20030;-78
2023/04/02 01:17:47;;;;;;;13.57;7.75;;;;;;;-143.48;94.07;118439.88;5017226;28;20128;-78
2023/04/02 01:20:31;;;;;;;12.95;8.13;;;;;;;-143.48;94.05;118439.88;5036149;28;20025;-78
2023/04/02 01:23:06;;;;;;;13.75;7.47;;;;;;;-143.48;93.43;118439.88;5034463;28;20036;-78
2023/04/02 01:26:11;;;;;;;13.50;7.82;;;;;;;-143.48;93.30;118439.88;5034330;28;20018;-78
2023/04/02 01:29:03;;;;;;;11.85;7.50;;;;;;;-143.48;93.15;118439.88;5013215;28;20041;-78
2023/04/02 01:31:31;;;;;;;16.63;7.75;;;;;;;-143.48;93.63;118439.88;5016655;28;20033;-78
2023/04/02 01:33:57;;;;;;;13.73;7.80;;;;;;;-143.48;94.30;118439.88;5034387;28;20104;-78
2023/04/02 01:37:04;;;;;;;13.23;7.18;;;;;;;-143.48;94.28;118439.88;5016372;28;20023;-78
2023/04/02 01:39:55;;;;;;;12.45;7.07;;;;;;;-143.48;93.24;118439.88;5029233;28;20057;-78
2023/04/02 01:42:20;;;;;;;15.60;7.43;;;;;;;-143.48;93.53;118439.88;5034061;28;20029;-78
2023/04/02 01:44:47;;;;;;;15.05;7.57;;;;;;;-143.48;93.40;118439.88;5016166;28;20511;-78
2023/04/02 01:47:16;;;;;;;14.27;7.15;;;;;;;-143.48;92.88;118439.88;5016337;28;20021;-78
2023/04/02 01:49:43;;;;;;;11.93;6.75;;;;;;;-143.48;92.68;118439.88;5033687;28;20033;-78
2023/04/02 01:52:15;;;;;;;10.27;6.97;;;;;;;-143.48;93.01;118439.88;5016339;28;20118;-78
2023/04/02 01:54:40;;;;;;;10.63;6.88;;;;;;;-143.48;93.42;118439.88;5034258;28;20029;-78
2023/04/02 01:57:07;;;;;;;14.25;7.38;;;;;;;-143.48;93.86;118439.88;5033401;28;20112;-78
2023/04/02 01:59:33;;;;;;;13.63;6.88;;;;;;;-143.48;93.03;118439.88;5033613;28;20037;-78
2023/04/02 02:02:03;;;;;;;13.70;6.57;;;;;;;-143.48;92.28;118439.88;5034135;28;20025;-78
2023/04/02 02:04:30;;;;;;;14.20;7.20;;;;;;;-143.48;93.46;118439.88;5016265;28;20526;-78
2023/04/02 02:06:57;;;;;;;12.57;7.38;;;;;;;-143.48;93.05;118439.88;5033606;28;20033;-78
2023/04/02 02:09:27;;;;;;;14.68;7.30;;;;;;;-143.48;92.58;118439.88;5033589;28;20017;-78
2023/04/02 02:11:52;;;;;;;17.45;7.28;;;;;;;-143.48;91.85;118439.88;5033686;28;20022;-78
2023/04/02 02:14:21;;;;;;;13.85;7.43;;;;;;;-143.48;92.16;118439.88;5015910;28;20080;-78
2023/04/02 02:16:47;;;;;;;14.57;7.57;;;;;;;-143.48;92.20;118439.88;5015630;28;20067;-77
2023/04/02 02:19:33;;;;;;;13.57;7.18;;;;;;;-143.48;92.16;118439.88;5033738;28;20061;-77
2023/04/02 02:22:16;;;;;;;13.70;7.20;;;;;;;-143.48;92.18;118439.88;5034247;28;20384;-77
2023/04/02 02:24:42;;;;;;;16.13;7.15;;;;;;;-143.48;92.30;118439.88;5033520;28;20500;-78
2023/04/02 02:27:20;;;;;;;12.15;7.05;;;;;;;-143.48;91.56;118439.88;5016106;28;20017;-78
2023/04/02 02:29:51;;;;;;;12.13;6.60;;;;;;;-143.48;92.29;118439.88;5015714;28;20033;-78
2023/04/02 02:32:20;;;;;;;11.80;6.50;;;;;;;-143.48;92.13;118439.88;5033645;28;20022;-78
2023/04/02 02:34:56;;;;;;;13.23;6.55;;;;;;;-143.48;92.06;118439.88;5015661;28;20025;-78
2023/04/02 02:37:29;;;;;;;14.52;6.65;;;;;;;-143.48;92.50;118439.88;5015680;28;20017;-77
2023/04/02 02:39:58;;;;;;;10.63;6.55;;;;;;;-143.48;91.96;118439.88;5033441;28;20132;-78
2023/04/02 02:42:41;;;;;;;9.93;6.05;;;;;;;-143.48;91.26;118439.88;5017379;28;20060;-78
2023/04/02 02:45:13;;;;;;;;;;;;;;;-143.48;91.00;118439.88;5035336;28;20029;-78
2023/04/02 02:47:43;;;;;;;11.93;5.82;;;;;;;-143.48;91.70;118439.88;5033721;28;19954;-78
2023/04/02 02:50:17;;;;;;;11.93;6.43;;;;;;;-143.48;91.80;118439.88;5015589;28;20435;-78
2023/04/02 02:52:46;;;;;;;12.05;6.85;;;;;;;-143.48;92.56;118439.88;5015455;28;20520;-78
2023/04/02 02:55:16;;;;;;;10.43;6.63;;;;;;;-143.48;91.02;118439.88;5015946;28;20029;-78
2023/04/02 02:57:48;;;;;;;12.27;6.32;;;;;;;-143.48;90.84;118439.88;5015937;28;20022;-77
2023/04/02 03:00:15;;;;;;;11.45;6.32;;;;;;;-143.48;90.76;118439.88;5015843;28;20033;-78
2023/04/02 03:02:41;;;;;;;9.43;6.13;;;;;;;-143.48;91.08;118439.88;5015916;28;20033;-78
2023/04/02 03:05:08;;;;;;;14.30;6.03;;;;;;;-143.48;90.76;118439.88;5015656;28;20026;-78
2023/04/02 03:07:36;;;;;;;9.68;5.90;;;;;;;-143.48;91.90;118439.88;5016006;28;20014;-78
2023/04/02 03:10:20;;;;;;;10.25;5.88;;;;;;;-143.48;91.64;118439.88;5018063;28;20416;-78
2023/04/02 03:13:13;;;;;;;10.38;6.43;;;;;;;-143.48;91.38;118439.88;5019036;28;20053;-77
2023/04/02 03:15:57;;;;;;;;;;;;;;;-143.48;91.10;118439.88;5037217;28;20025;-78
2023/04/02 03:18:42;;;;;;;10.48;6.50;;;;;;;-143.48;91.44;118439.88;5019310;28;20345;-78
2023/04/02 03:21:29;;;;;;;10.32;6.30;;;;;;;-143.48;91.13;118439.88;5036706;28;20026;-78
2023/04/02 03:24:04;;;;;;;14.30;6.55;;;;;;;-143.48;91.44;118439.88;5019168;28;20060;-76
2023/04/02 03:26:42;;;;;;;12.15;6.38;;;;;;;-143.48;90.87;118439.88;5037041;28;20033;-76
2023/04/02 03:29:44;;;;;;;10.93;6.90;;;;;;;-143.48;91.18;118439.88;5019196;28;20021;-77
2023/04/02 03:32:17;;;;;;;10.38;6.53;;;;;;;-143.48;90.97;118439.88;4968294;28;20463;-76
2023/04/02 03:34:55;;;;;;;10.73;6.47;;;;;;;-143.48;91.10;118439.88;5036836;28;20395;-77
2023/04/02 03:37:43;;;;;;;9.38;6.50;;;;;;;-143.48;90.11;118439.88;5018855;28;20469;-76
2023/04/02 03:40:17;;;;;;;11.40;6.63;;;;;;;-143.48;90.69;118439.88;5018154;28;20489;-77
2023/04/02 03:42:54;;;;;;;12.07;6.25;;;;;;;-143.48;90.84;118439.88;5036711;28;20029;-78
2023/04/02 03:45:27;;;;;;;9.55;5.97;;;;;;;-143.48;90.90;118439.88;5019200;28;20022;-77
2023/04/02 03:48:01;;;;;;;11.27;6.32;;;;;;;-143.48;89.58;118439.88;5036237;28;20026;-78
2023/04/02 03:50:50;;;;;;;12.55;6.60;;;;;;;-143.48;89.03;118439.88;5018401;28;20358;-77
2023/04/02 03:53:15;;;;;;;8.40;5.43;;;;;;;-143.48;88.70;118439.88;5004587;28;20449;-78
2023/04/02 03:55:41;;;;;;;9.75;6.10;;;;;;;-143.48;88.89;118439.88;5035973;28;20033;-78
2023/04/02 03:58:12;;;;;;;12.48;6.05;;;;;;;-143.48;88.98;118439.88;5036128;28;20469;-77
2023/04/02 04:00:44;;;;;;;9.05;5.95;;;;;;;-143.48;89.20;118439.88;5018150;28;20028;-77
2023/04/02 04:03:23;;;;;;;9.50;6.13;;;;;;;-143.48;87.82;118439.88;5018154;28;20389;-77
2023/04/02 04:05:54;;;;;;;9.75;5.93;;;;;;;-143.48;88.30;118439.88;5035703;28;20036;-77
2023/04/02 04:08:25;;;;;;;11.55;6.07;;;;;;;-143.48;87.42;118439.88;5035839;28;20022;-77
2023/04/02 04:10:57;;;;;;;8.73;5.70;;;;;;;-143.48;87.23;118439.88;5017874;28;20051;-77
2023/04/02 04:13:50;;;;;;;10.82;5.68;;;;;;;-143.48;87.71;118439.88;5018621;28;20036;-77
2023/04/02 04:16:25;;;;;;;9.67;5.30;;;;;;;-143.48;88.09;118439.88;5018098;28;20492;-78
2023/04/02 04:19:02;;;;;;;10.65;5.75;;;;;;;-143.48;88.75;118439.88;5018278;28;20496;-78
2023/04/02 04:21:29;;;;;;;9.10;5.53;;;;;;;-143.48;87.30;118439.88;5017489;28;20021;-77
2023/04/02 04:24:02;;;;;;;9.52;5.50;;;;;;;-143.48;87.87;118439.88;5035492;28;20033;-77
2023/04/02 04:26:34;;;;;;;10.13;5.50;;;;;;;-143.48;87.10;118439.88;5017774;28;20032;-78
2023/04/02 04:29:11;;;;;;;9.63;5.38;;;;;;;-143.48;86.98;118439.88;5017753;28;20032;-77
2023/04/02 04:31:48;;;;;;;8.77;5.63;;;;;;;-143.48;87.00;118439.88;5017403;28;20030;-77
2023/04/02 04:34:45;;;;;;;8.43;5.40;;;;;;;-143.48;87.18;118439.88;5017501;28;20025;-78
2023/04/02 04:37:25;;;;;;;12.20;5.80;;;;;;;-143.48;86.96;118439.88;5017566;28;20035;-77
2023/04/02 04:39:58;;;;;;;11.60;5.57;;;;;;;-143.48;85.85;118439.88;5035192;28;20048;-77
2023/04/02 04:42:26;;;;;;;;;;;;;;;-143.48;86.92;118439.88;5018031;28;20033;-77
2023/04/02 04:45:02;;;;;;;8.32;5.13;;;;;;;-143.48;86.68;118439.88;5035252;28;19909;-78
2023/04/02 04:47:42;;;;;;;10.50;6.20;;;;;;;-143.48;85.83;118439.88;5017387;28;20020;-77
2023/04/02 04:50:19;;;;;;;15.15;5.85;;;;;;;-143.48;84.26;118439.88;5035337;28;20107;-78
2023/04/02 04:52:44;;;;;;;8.65;4.70;;;;;;;-143.48;84.80;118439.88;5035067;28;20029;-78
2023/04/02 04:55:33;;;;;;;11.60;5.35;;;;;;;-143.48;84.89;118439.88;5034823;28;20029;-77
2023/04/02 04:58:03;;;;;;;12.65;5.20;;;;;;;-143.48;84.45;118439.88;5017261;28;20021;-76
2023/04/02 05:00:41;;;;;;;14.05;5.40;;;;;;;-143.48;84.08;118439.88;5035640;28;20025;-77
2023/04/02 05:03:20;;;;;;;11.77;5.00;;;;;;;-143.48;83.30;118439.88;5035619;28;20108;-78
2023/04/02 05:05:47;;;;;;;14.38;4.70;;;;;;;-143.48;83.06;118439.88;5035099;28;20040;-77
2023/04/02 05:08:18;;;;;;;9.50;4.70;;;;;;;-143.48;83.37;118439.88;5017678;28;20473;-77
2023/04/02 05:10:54;;;;;;;9.57;4.40;;;;;;;-143.48;82.87;118439.88;5034855;28;20025;-77
2023/04/02 05:13:27;;;;;;;10.02;4.20;;;;;;;-143.48;83.22;118439.88;5016158;28;20083;-77
2023/04/02 05:16:14;;;;;;;9.98;4.15;;;;;;;-143.48;83.23;118439.88;5034759;28;20029;-77
2023/04/02 05:18:46;;;;;;;9.82;4.28;;;;;;;-143.48;83.85;118439.88;5017268;28;20057;-77
2023/04/02 05:21:25;;;;;;;9.88;4.20;;;;;;;-143.48;83.40;118439.88;5034582;28;20037;-78
2023/04/02 05:24:10;;;;;;;9.63;3.90;;;;;;;-143.48;82.93;118439.88;5034989;28;20036;-78
2023/04/02 05:26:44;;;;;;;9.18;4.00;;;;;;;-143.48;83.01;118439.88;5016768;28;20122;-77
2023/04/02 05:29:24;;;;;;;6.07;3.75;;;;;;;-143.48;83.14;118439.88;5034460;28;20465;-78
2023/04/02 05:32:07;;;;;;;7.03;3.80;;;;;;;-143.48;83.48;118439.88;5016075;28;20095;-77
2023/04/02 05:34:36;;;;;;;7.75;3.63;;;;;;;-143.48;84.05;118439.88;5017001;28;20389;-78
2023/04/02 05:37:02;;;;;;;8.25;3.80;;;;;;;-143.48;82.82;118439.88;5016841;28;20384;-78
2023/04/02 05:39:28;;;;;;;6.05;3.42;;;;;;;-143.48;83.19;118439.88;5017714;28;20118;-77
2023/04/02 05:42:03;;;;;;;9.48;3.60;;;;;;;-143.48;83.80;118439.88;5035155;28;20504;-78
2023/04/02 05:44:31;;;;;;;6.88;3.30;;;;;;;-143.48;83.87;118439.88;5036189;28;20400;-78
2023/04/02 05:47:07;;;;;;;10.70;4.03;;;;;;;-143.48;84.12;118439.88;5034807;28;20026;-77
2023/04/02 05:49:49;;;;;;;7.25;3.78;;;;;;;-143.48;83.67;118439.88;5034616;28;20056;-77
2023/04/02 05:52:22;;;;;;;9.27;3.90;;;;;;;-143.48;82.68;118439.88;5016639;28;20520;-78
2023/04/02 05:55:08;;;;;;;8.00;3.67;;;;;;;-143.48;82.96;118439.88;5015541;28;20022;-77
2023/04/02 05:57:49;;;;;;;9.82;3.67;;;;;;;-143.48;83.57;118439.88;5033834;28;20029;-78
2023/04/02 06:00:22;;;;;;;8.30;3.63;;;;;;;-143.48;84.41;118439.88;5033932;28;20052;-78
2023/04/02 06:02:58;;;;;;;11.23;4.40;;;;;;;-143.48;83.57;118439.88;5034433;28;20033;-77
2023/04/02 06:05:32;;;;;;;10.73;4.18;;;;;;;-143.48;82.95;118439.88;5016553;28;20021;-77
2023/04/02 06:08:05;;;;;;;11.90;4.32;;;;;;;-143.48;83.20;118439.88;5016225;28;20082;-77
2023/04/02 06:10:49;;;;;;;10.30;4.20;;;;;;;-143.48;82.97;118439.88;5034377;28;20018;-76
2023/04/02 06:13:17;;;;;;;7.90;3.90;;;;;;;-143.48;82.81;118439.88;5034730;28;20104;-76
2023/04/02 06:15:43;;;;;;;10.55;4.30;;;;;;;-143.48;81.47;118439.88;5034303;28;20489;-78
2023/04/02 06:18:18;;;;;;;6.80;3.72;;;;;;;-143.48;81.94;118439.88;5034934;28;20032;-78
2023/04/02 06:20:44;;;;;;;11.98;4.38;;;;;;;-143.48;81.59;118439.88;5034912;28;20515;-78
2023/04/02 06:23:20;;;;;;;6.30;3.90;;;;;;;-143.48;81.50;118439.88;5016678;28;20029;-79
2023/04/02 06:26:01;;;;;;;9.85;4.70;;;;;;;-143.48;81.87;118439.88;5017437;28;20078;-78
2023/04/02 06:28:34;;;;;;;10.55;4.13;;;;;;;-143.48;81.63;118439.88;5035151;28;20025;-78
2023/04/02 06:31:06;;;;;;;11.10;4.60;;;;;;;-143.48;81.05;118439.88;5017544;28;20465;-77
2023/04/02 06:33:31;;;;;;;9.98;4.38;;;;;;;-143.48;82.33;118439.88;5035113;28;20030;-77
2023/04/02 06:35:59;;;;;;;9.23;4.13;;;;;;;-143.48;81.97;118439.88;5017338;28;20033;-77
2023/04/02 06:38:29;;;;;;;8.77;4.57;;;;;;;-143.48;83.55;118439.88;5017742;28;20361;-78
2023/04/02 06:41:01;;;;;;;8.43;4.47;;;;;;;-143.48;82.48;118439.88;5017989;28;20049;-78
2023/04/02 06:43:44;;;;;;;8.38;4.78;;;;;;;-143.48;83.12;118439.88;5037135;28;20028;-78
2023/04/02 06:46:17;;;;;;;;;;;;;;;-143.48;83.43;118439.88;5021731;28;20507;-78
2023/04/02 06:48:43;;;;;;;13.48;4.53;;;;;;;-143.48;84.88;118439.88;5041791;28;19909;-78
2023/04/02 06:51:12;;;;;;;7.85;4.13;;;;;;;-143.48;83.88;118439.88;5042178;28;20473;-79
2023/04/02 06:53:48;;;;;;;8.57;4.10;;;;;;;-143.48;84.69;118439.88;5038948;28;20498;-77
2023/04/02 06:56:51;;;;;;;10.88;3.88;;;;;;;-143.48;84.74;118439.88;5023102;28;20026;-77
2023/04/02 06:59:17;;;;;;;7.10;3.85;;;;;;;-143.48;85.36;118439.88;5044338;28;20460;-77
2023/04/02 07:01:56;;;;;;;8.13;4.13;;;;;;;-143.48;82.42;118439.88;5050632;28;20029;-77
2023/04/02 07:04:22;;;;;;;6.90;4.10;;;;;;;-143.48;83.47;118439.88;5040682;28;20013;-76
2023/04/02 07:06:48;;;;;;;7.60;3.72;;;;;;;-143.48;82.17;118439.88;5059715;28;20436;-77
2023/04/02 07:09:13;;;;;;;8.25;4.18;;;;;;;-143.48;81.47;118439.88;5045722;28;20026;-78
2023/04/02 07:11:39;;;;;;;10.05;4.20;;;;;;;-143.48;80.97;118439.88;5025356;28;20364;-78
2023/04/02 07:14:05;;;;;;;11.02;4.10;;;;;;;-143.48;82.09;118439.88;5041228;28;20029;-78
2023/04/02 07:16:32;;;;;;;6.22;4.07;;;;;;;-143.48;81.38;118439.88;5042076;28;20114;-78
2023/04/02 07:18:58;;;;;;;7.40;3.90;;;;;;;-143.48;81.44;118439.88;5040948;28;20029;-76
2023/04/02 07:21:25;;;;;;;8.35;3.80;;;;;;;-143.48;81.49;118439.88;5052761;28;20022;-78
2023/04/02 07:23:51;;;;;;;8.43;3.47;;;;;;;-143.48;81.31;118439.88;5050816;28;20068;-78
2023/04/02 07:26:19;;;;;;;13.88;3.88;;;;;;;-143.48;81.29;118439.88;5035951;28;20032;-77
2023/04/02 07:28:45;;;;;;;7.00;3.85;;;;;;;-143.48;81.65;118439.88;5037067;28;20044;-78
2023/04/02 07:31:25;;;;;;;8.05;3.45;;;;;;;-143.48;81.46;118439.88;5055013;28;20014;-78
2023/04/02 07:33:53;;;;;;;7.88;3.75;;;;;;;-143.48;81.71;118439.88;5039073;28;20053;-76
2023/04/02 07:36:21;;;;;;;10.43;3.72;;;;;;;-143.48;82.03;118439.88;5056161;28;20040;-77
2023/04/02 07:38:47;;;;;;;6.93;4.00;;;;;;;-143.48;83.31;118439.88;5040154;28;20041;-77
2023/04/02 07:41:13;;;;;;;6.80;3.45;;;;;;;-143.48;82.99;118439.88;5057263;28;20048;-76
2023/04/02 07:43:40;;;;;;;7.80;4.20;;;;;;;-143.48;83.72;118439.88;5059615;28;20021;-77
2023/04/02 07:46:08;;;;;;;7.38;3.85;;;;;;;-143.48;82.27;118439.88;5027006;28;20034;-77
2023/04/02 07:48:33;;;;;;;8.23;4.20;;;;;;;-143.48;82.73;118439.88;5058609;28;20053;-77
2023/04/02 07:51:01;;;;;;;9.60;4.00;;;;;;;-143.48;82.44;118439.88;5058426;28;20056;-78
2023/04/02 07:53:30;;;;;;;8.35;3.55;;;;;;;-143.48;80.56;118439.88;5058620;28;20025;-78
2023/04/02 07:55:58;;;;;;;9.98;3.42;;;;;;;-143.48;81.08;118439.88;5054322;28;20044;-77
2023/04/02 07:58:23;;;;;;;8.27;3.50;;;;;;;-143.48;80.39;118439.88;5026878;28;20044;-77
2023/04/02 08:00:49;;;;;;;10.27;3.67;;;;;;;-143.48;80.05;118439.88;5025399;28;20029;-77
2023/04/02 08:03:15;;;;;;;6.07;3.05;;;;;;;-143.48;80.00;118439.88;5049774;28;20055;-78
2023/04/02 08:05:40;;;;;;;6.35;2.97;;;;;;;-143.48;79.56;118439.88;5052784;28;20029;-77
2023/04/02 08:08:06;;;;;;;4.95;3.00;;;;;;;-143.48;80.15;118439.88;5054340;28;20017;-78
2023/04/02 08:10:31;;;;;;;9.32;3.80;;;;;;;-143.48;79.79;118439.88;5028979;28;20531;-77
2023/04/02 08:12:57;;;;;;;6.50;3.47;;;;;;;-143.48;80.43;118439.88;5021495;28;20024;-76
2023/04/02 08:15:22;;;;;;;7.78;3.70;;;;;;;-143.48;79.02;118439.88;5053075;28;20021;-76
2023/04/02 08:17:47;;;;;;;6.63;3.17;;;;;;;-143.48;79.24;118439.88;5055026;28;20025;-77
2023/04/02 08:20:18;;;;;;;5.72;3.60;;;;;;;-143.48;79.22;118439.88;5035635;28;20021;-77
2023/04/02 08:22:45;;;;;;;7.47;3.92;;;;;;;-143.48;78.61;118439.88;5036097;28;20040;-77
2023/04/02 08:25:11;;;;;;;7.00;3.33;;;;;;;-143.48;76.05;118439.88;5053672;28;20025;-78
2023/04/02 08:27:37;;;;;;;8.27;3.45;;;;;;;-143.48;75.87;118439.88;5037091;28;20057;-77
2023/04/02 08:30:03;;;;;;;7.45;3.33;;;;;;;-143.48;77.39;118439.88;5053377;28;20037;-78
2023/04/02 08:32:28;;;;;;;6.50;3.35;;;;;;;-143.48;75.30;118439.88;5054445;28;20046;-78
2023/04/02 08:34:53;;;;;;;7.40;3.70;;;;;;;-143.48;75.55;118439.88;5056309;28;20026;-78
2023/04/02 08:37:19;;;;;;;6.25;3.63;;;;;;;-143.48;75.06;118439.88;5040127;28;20043;-77
2023/04/02 08:39:45;;;;;;;9.68;3.90;;;;;;;-143.48;74.81;118439.88;5040336;28;20132;-76
2023/04/02 08:42:37;;;;;;;7.75;4.07;;;;;;;-143.48;73.75;118439.88;5055695;28;20010;-78
2023/04/02 08:45:36;;;;;;;9.50;4.60;;;;;;;-143.48;72.43;118439.88;5039750;28;20013;-77
2023/04/02 08:48:04;;;;;;;12.57;5.22;;;;;;;-143.48;71.12;118439.88;5053122;28;20044;-78
2023/04/02 08:50:33;;;;;;;8.18;4.40;;;;;;;-143.48;69.67;118439.88;5037299;28;20485;-77
2023/04/02 08:53:05;;;;;;;8.13;4.85;;;;;;;-143.48;70.52;118439.88;5036754;28;20021;-77
2023/04/02 08:55:42;;;;;;;9.93;5.07;;;;;;;-143.48;71.51;118439.88;5037876;28;20059;-78
2023/04/02 08:58:40;;;;;;;12.88;4.88;;;;;;;-143.48;68.86;118439.88;5054382;28;20396;-77
2023/04/02 09:01:09;;;;;;;8.60;4.28;;;;;;;-143.48;61.53;118439.88;5054583;28;20025;-78
2023/04/02 09:03:41;;;;;;;6.22;4.05;;;;;;;-143.48;51.97;118439.88;5035878;28;20017;-77
2023/04/02 09:06:12;;;;;;;7.67;4.30;;;;;;;-143.48;57.14;118439.88;5052148;28;20064;-77
2023/04/02 09:08:38;;;;;;;6.22;3.97;;;;;;;-143.48;51.00;118439.88;5035521;28;20268;-77
2023/04/02 09:11:22;;;;;;;7.97;3.83;;;;;;;-143.48;49.75;118439.88;5036643;28;20029;-77
2023/04/02 09:13:53;;;;;;;5.57;3.17;;;;;;;-143.48;53.28;118439.88;5054039;28;20118;-77
2023/04/02 09:16:24;;;;;;;8.07;3.20;;;;;;;-143.48;54.70;118439.88;5037361;28;20032;-78
2023/04/02 09:18:52;;;;;;;6.80;2.95;;;;;;;-143.48;55.90;118439.88;5055695;28;20029;-77
2023/04/02 09:21:20;;;;;;;8.38;3.22;;;;;;;-143.48;54.47;118439.88;5036974;28;20077;-77
2023/04/02 09:23:46;;;;;;;12.07;3.10;;;;;;;-143.48;51.79;118439.88;5054193;28;20029;-78
2023/04/02 09:26:31;;;;;;;6.40;3.00;;;;;;;-143.48;52.77;118439.88;5036618;28;20025;-77
2023/04/02 09:29:12;;;;;;;8.73;2.70;;;;;;;-143.48;52.59;118439.88;5056262;28;20033;-78
2023/04/02 09:31:49;;;;;;;7.53;2.80;;;;;;;-143.48;53.36;118439.88;5054778;28;20026;-78
2023/04/02 09:34:28;;;;;;;6.13;2.65;;;;;;;-143.48;51.43;118439.88;5055621;28;20093;-78
2023/04/02 09:36:54;;;;;;;5.25;2.70;;;;;;;-143.48;51.98;118439.88;5058269;28;20032;-77
2023/04/02 09:39:25;;;;;;;7.80;2.60;;;;;;;-143.48;55.41;118439.88;5057950;28;20013;-78
2023/04/02 09:41:51;;;;;;;6.82;2.70;;;;;;;-143.48;55.36;118439.88;5041404;28;20013;-79
2023/04/02 09:44:30;;;;;;;7.38;2.58;;;;;;;-143.48;54.55;118439.88;5041129;28;20020;-78
2023/04/02 09:47:05;;;;;;;10.20;2.85;;;;;;;-143.48;53.98;118439.88;5041589;28;20037;-78
2023/04/02 09:49:37;;;;;;;6.68;2.38;;;;;;;-143.48;51.99;118439.88;5039725;28;20072;-78
2023/04/02 09:52:18;;;;;;;6.72;2.40;;;;;;;-143.48;52.51;118439.88;5055910;28;20024;-78
2023/04/02 09:54:43;;;;;;;6.43;2.47;;;;;;;-143.48;54.63;118439.88;5038075;28;20029;-79
2023/04/02 09:57:32;;;;;;;8.68;2.60;;;;;;;-143.48;51.93;118439.88;5057167;28;20024;-78
2023/04/02 10:00:27;;;;;;;5.72;2.72;;;;;;;-143.48;51.10;118439.88;5039767;28;20010;-78
2023/04/02 10:03:20;;;;;;;6.35;2.50;;;;;;;-143.48;52.70;118439.88;5057851;28;20016;-78
2023/04/02 10:05:46;;;;;;;7.03;2.50;;;;;;;-143.48;51.93;118439.88;5056375;28;20038;-78
2023/04/02 10:08:23;;;;;;;6.47;2.40;;;;;;;-143.48;50.64;118439.88;5056907;28;20016;-78
2023/04/02 10:10:55;;;;;;;6.32;2.60;;;;;;;-143.48;50.94;118439.88;5057261;28;20041;-79
2023/04/02 10:13:28;;;;;;;6.55;2.78;;;;;;;-143.48;50.77;118439.88;5057494;28;20024;-78
2023/04/02 10:15:59;;;;;;;5.93;2.60;;;;;;;-143.48;53.76;118439.88;5036355;28;20021;-79
2023/04/02 10:18:46;;;;;;;12.52;2.70;;;;;;;-143.48;53.10;118439.88;5053964;28;20041;-79
2023/04/02 10:21:24;;;;;;;7.53;2.70;;;;;;;-143.48;49.85;118439.88;5071791;22;20053;-39
2023/04/02 10:23:49;;;;;;;6.25;3.42;;;;;;;-143.48;49.58;118439.88;5057400;28;20025;-40
2023/04/02 10:26:26;;;;;;;8.00;2.53;;;;;;;-143.48;49.32;118439.88;5057743;28;20028;-40
2023/04/02 10:29:24;;;;;;;8.35;2.40;;;;;;;-143.48;49.79;118439.88;5039313;28;20017;-40
2023/04/02 10:32:10;;;;;;;5.18;2.20;;;;;;;-143.48;49.81;118439.88;5056976;28;20116;-40
2023/04/02 10:34:54;;;;;;;4.93;2.33;;;;;;;-143.48;48.58;118439.88;5057260;28;20036;-40
2023/04/02 10:37:44;;;;;;;5.43;2.03;;;;;;;-143.48;48.09;118439.88;5056036;28;20047;-39
2023/04/02 10:40:33;;;;;;;7.03;2.55;;;;;;;-143.48;48.22;118439.88;5056178;28;20112;-40
2023/04/02 10:43:33;;;;;;;6.80;2.20;;;;;;;-143.48;48.52;118439.88;5056026;28;20028;-40
2023/04/02 10:46:34;;;;;;;6.00;2.25;;;;;;;-143.48;48.20;118439.88;5054940;28;20140;-40
2023/04/02 10:49:15;;;;;;;8.00;2.17;;;;;;;-143.48;51.04;118439.88;5025788;28;20036;-40
2023/04/02 10:51:53;;;;;;;7.03;2.65;;;;;;;-143.48;49.47;118439.88;5055873;28;20029;-40
2023/04/02 10:54:37;;;;;;;4.63;2.20;;;;;;;-143.48;48.37;118439.88;5056597;28;20029;-40
2023/04/02 10:57:14;;;;;;;9.38;2.00;;;;;;;-143.48;46.77;118439.88;5056862;28;20094;-41
2023/04/02 10:59:45;;;;;;;6.32;2.20;;;;;;;-143.48;46.80;118439.88;5056510;28;20025;-40
2023/04/02 11:02:52;;;;;;;7.38;2.08;;;;;;;-143.48;48.13;118439.88;5056787;28;20055;-41
2023/04/02 11:05:25;;;;;;;5.45;2.00;;;;;;;-143.48;50.52;118439.88;5055822;28;20098;-41
2023/04/02 11:08:30;;;;;;;4.65;2.10;;;;;;;-143.48;48.34;118439.88;5056601;28;20479;-41
2023/04/02 11:10:57;;;;;;;6.80;2.10;;;;;;;-143.48;48.03;118439.88;5053225;28;20044;-40
2023/04/02 11:13:42;;;;;;;5.43;2.00;;;;;;;-143.48;49.47;118439.88;5056560;28;20094;-40
2023/04/02 11:16:11;;;;;;;7.53;2.10;;;;;;;-143.48;49.61;118439.88;5056242;28;20032;-40
2023/04/02 11:18:37;;;;;;;6.32;1.90;;;;;;;-143.48;47.79;118439.88;5056370;28;20025;-40
2023/04/02 11:21:26;;;;;;;5.28;1.98;;;;;;;-143.48;46.32;118439.88;5056104;28;20053;-40
2023/04/02 11:24:02;;;;;;;4.25;1.90;;;;;;;-143.48;47.49;118439.88;5055898;28;20369;-40
2023/04/02 11:26:38;;;;;;;8.10;2.20;;;;;;;-143.48;49.51;118439.88;5039225;28;20031;-41
2023/04/02 11:29:13;;;;;;;6.72;2.05;;;;;;;-143.48;49.09;118439.88;5055906;28;20140;-41
2023/04/02 11:31:38;;;;;;;6.15;2.00;;;;;;;-143.48;48.56;118439.88;5055460;28;20021;-41
2023/04/02 11:34:04;;;;;;;4.68;1.80;;;;;;;-143.48;47.57;118439.88;5055944;28;20162;-41
2023/04/02 11:36:54;;;;;;;4.68;2.05;;;;;;;-143.48;49.02;118439.88;5055934;28;20059;-40
2023/04/02 11:39:52;;;;;;;4.47;1.80;;;;;;;-143.48;48.22;118439.88;5055860;28;20095;-40